createdAt,value
2018-08-21T00:00:36.652Z,25.83
2018-08-21T00:01:36.640Z,25.86
2018-08-21T00:02:36.638Z,25.86
2018-08-21T00:03:36.634Z,25.86
2018-08-21T00:04:36.630Z,25.91
2018-08-21T00:05:36.623Z,25.85
2018-08-21T00:06:36.618Z,25.85
2018-08-21T00:07:36.612Z,25.86
2018-08-21T00:08:36.608Z,25.86
2018-08-21T00:09:36.604Z,25.86
2018-08-21T00:10:36.600Z,25.81
2018-08-21T00:11:36.593Z,25.93
2018-08-21T00:12:36.589Z,25.78
2018-08-21T00:13:36.587Z,25.78
2018-08-21T00:14:36.587Z,25.83
2018-08-21T00:15:36.573Z,25.85
2018-08-21T00:16:36.574Z,25.81
2018-08-21T00:17:36.565Z,25.83
2018-08-21T00:18:36.561Z,25.85
2018-08-21T00:19:36.557Z,25.89
2018-08-21T00:20:36.549Z,25.92
2018-08-21T00:21:36.547Z,25.88
2018-08-21T00:22:36.542Z,25.88
2018-08-21T00:23:36.538Z,25.85
2018-08-21T00:24:36.538Z,25.80
2018-08-21T00:25:36.527Z,25.92
2018-08-21T00:26:36.555Z,25.85
2018-08-21T00:27:36.540Z,25.85
2018-08-21T00:28:36.514Z,25.89
2018-08-21T00:29:36.509Z,25.89
2018-08-21T00:30:36.505Z,25.89
2018-08-21T00:31:36.499Z,25.85
2018-08-21T00:32:36.494Z,25.91
2018-08-21T00:33:36.492Z,25.81
2018-08-21T00:34:36.491Z,25.92
2018-08-21T00:35:36.481Z,25.91
2018-08-21T00:36:36.475Z,25.86
2018-08-21T00:37:36.471Z,25.91
2018-08-21T00:38:36.467Z,25.89
2018-08-21T00:39:36.469Z,25.88
2018-08-21T00:40:36.454Z,25.85
2018-08-21T00:41:36.453Z,25.88
2018-08-21T00:42:36.449Z,25.85
2018-08-21T00:43:36.444Z,25.89
2018-08-21T00:44:36.448Z,25.89
2018-08-21T00:45:36.439Z,25.83
2018-08-21T00:46:36.429Z,25.88
2018-08-21T00:47:36.423Z,25.83
2018-08-21T00:48:36.422Z,25.85
2018-08-21T00:49:36.416Z,25.86
2018-08-21T00:50:36.416Z,25.88
2018-08-21T00:51:36.407Z,25.93
2018-08-21T00:52:36.400Z,25.86
2018-08-21T00:53:36.397Z,25.92
2018-08-21T00:54:36.399Z,25.89
2018-08-21T00:55:36.389Z,25.80
2018-08-21T00:56:36.389Z,25.80
2018-08-21T00:57:36.379Z,25.83
2018-08-21T00:58:36.375Z,25.88
2018-08-21T00:59:36.365Z,25.78
2018-08-21T01:00:36.364Z,25.85
2018-08-21T01:01:36.359Z,25.81
2018-08-21T01:02:36.363Z,25.85
2018-08-21T01:03:36.349Z,25.78
2018-08-21T01:04:36.344Z,25.85
2018-08-21T01:05:36.340Z,25.80
2018-08-21T01:06:36.336Z,25.80
2018-08-21T01:07:36.328Z,25.85
2018-08-21T01:08:36.325Z,25.81
2018-08-21T01:09:36.326Z,25.71
2018-08-21T01:10:36.317Z,25.78
2018-08-21T01:11:36.311Z,25.78
2018-08-21T01:12:36.310Z,25.81
2018-08-21T01:13:36.303Z,25.78
2018-08-21T01:14:36.300Z,25.80
2018-08-21T01:15:36.293Z,25.74
2018-08-21T01:16:36.289Z,25.73
2018-08-21T01:17:36.284Z,25.81
2018-08-21T01:18:36.277Z,25.83
2018-08-21T01:19:36.275Z,25.85
2018-08-21T01:20:36.268Z,25.74
2018-08-21T01:21:36.267Z,25.77
2018-08-21T01:22:36.264Z,25.73
2018-08-21T01:23:36.255Z,25.76
2018-08-21T01:24:36.250Z,25.74
2018-08-21T01:25:36.247Z,25.81
2018-08-21T01:26:36.244Z,25.80
2018-08-21T01:27:36.236Z,25.77
2018-08-21T01:28:36.232Z,25.80
2018-08-21T01:29:36.228Z,25.78
2018-08-21T01:30:36.223Z,25.73
2018-08-21T01:31:36.216Z,25.76
2018-08-21T01:32:36.217Z,25.70
2018-08-21T01:33:36.209Z,25.78
2018-08-21T01:34:36.207Z,25.77
2018-08-21T01:35:36.199Z,25.81
2018-08-21T01:36:36.197Z,25.76
2018-08-21T01:37:36.192Z,25.80
2018-08-21T01:38:36.182Z,25.80
2018-08-21T01:39:36.177Z,25.76
2018-08-21T01:40:36.176Z,25.73
2018-08-21T01:41:36.170Z,25.80
2018-08-21T01:42:36.170Z,25.86
2018-08-21T01:43:36.172Z,25.76
2018-08-21T01:44:36.156Z,25.81
2018-08-21T01:45:36.154Z,25.83
2018-08-21T01:46:36.148Z,25.80
2018-08-21T01:47:36.145Z,25.83
2018-08-21T01:48:36.136Z,25.77
2018-08-21T01:49:36.135Z,25.83
2018-08-21T01:50:36.129Z,25.80
2018-08-21T01:51:36.128Z,25.81
2018-08-21T01:52:36.128Z,25.80
2018-08-21T01:53:36.115Z,25.80
2018-08-21T01:54:36.116Z,25.80
2018-08-21T01:55:36.107Z,25.78
2018-08-21T01:56:36.107Z,25.81
2018-08-21T01:57:36.095Z,25.85
2018-08-21T01:58:36.091Z,25.83
2018-08-21T01:59:36.088Z,25.78
2018-08-21T02:00:36.081Z,25.80
2018-08-21T02:01:36.086Z,25.83
2018-08-21T02:02:36.073Z,25.80
2018-08-21T02:03:36.076Z,25.86
2018-08-21T02:04:36.064Z,25.89
2018-08-21T02:05:36.060Z,25.81
2018-08-21T02:06:36.058Z,25.80
2018-08-21T02:07:36.048Z,25.80
2018-08-21T02:08:36.044Z,25.86
2018-08-21T02:09:36.042Z,25.80
2018-08-21T02:10:36.036Z,25.77
2018-08-21T02:11:36.035Z,25.85
2018-08-21T02:12:36.027Z,25.83
2018-08-21T02:13:36.023Z,25.78
2018-08-21T02:14:36.020Z,25.83
2018-08-21T02:15:36.012Z,25.83
2018-08-21T02:16:36.009Z,25.81
2018-08-21T02:17:36.004Z,25.81
2018-08-21T02:18:36.006Z,25.88
2018-08-21T02:19:35.994Z,25.80
2018-08-21T02:20:35.993Z,25.80
2018-08-21T02:21:35.992Z,25.88
2018-08-21T02:22:35.985Z,25.76
2018-08-21T02:23:35.978Z,25.80
2018-08-21T02:24:35.974Z,25.80
2018-08-21T02:25:35.967Z,25.83
2018-08-21T02:26:35.964Z,25.89
2018-08-21T02:27:35.957Z,25.86
2018-08-21T02:28:35.952Z,25.74
2018-08-21T02:29:35.947Z,25.83
2018-08-21T02:30:35.944Z,25.83
2018-08-21T02:31:35.941Z,25.83
2018-08-21T02:32:35.935Z,25.85
2018-08-21T02:33:35.931Z,25.74
2018-08-21T02:34:35.926Z,25.81
2018-08-21T02:35:35.919Z,25.83
2018-08-21T02:36:35.915Z,25.78
2018-08-21T02:37:35.911Z,25.76
2018-08-21T02:38:35.909Z,25.81
2018-08-21T02:39:35.898Z,25.81
2018-08-21T02:40:35.899Z,25.80
2018-08-21T02:41:35.892Z,25.77
2018-08-21T02:42:35.889Z,25.78
2018-08-21T02:43:35.890Z,25.85
2018-08-21T02:44:35.877Z,25.85
2018-08-21T02:45:35.875Z,25.77
2018-08-21T02:46:35.869Z,25.81
2018-08-21T02:47:35.860Z,25.83
2018-08-21T02:48:35.858Z,25.80
2018-08-21T02:49:35.855Z,25.80
2018-08-21T02:50:35.849Z,25.83
2018-08-21T02:51:35.851Z,25.80
2018-08-21T02:52:35.841Z,25.80
2018-08-21T02:53:35.837Z,25.81
2018-08-21T02:54:35.832Z,25.81
2018-08-21T02:55:35.828Z,25.74
2018-08-21T02:56:35.823Z,25.71
2018-08-21T02:57:35.820Z,25.78
2018-08-21T02:58:35.813Z,25.76
2018-08-21T02:59:35.819Z,25.76
2018-08-21T03:00:35.803Z,25.76
2018-08-21T03:01:35.807Z,25.73
2018-08-21T03:02:35.795Z,25.78
2018-08-21T03:03:35.790Z,25.80
2018-08-21T03:04:35.791Z,25.83
2018-08-21T03:05:35.783Z,25.74
2018-08-21T03:06:35.773Z,25.77
2018-08-21T03:07:35.772Z,25.71
2018-08-21T03:08:35.770Z,25.73
2018-08-21T03:09:35.766Z,25.73
2018-08-21T03:10:35.757Z,25.80
2018-08-21T03:11:35.751Z,25.80
2018-08-21T03:12:35.775Z,25.73
2018-08-21T03:13:35.743Z,25.73
2018-08-21T03:14:35.759Z,25.83
2018-08-21T03:15:35.735Z,25.71
2018-08-21T03:16:35.730Z,25.76
2018-08-21T03:17:35.725Z,25.76
2018-08-21T03:18:35.728Z,25.78
2018-08-21T03:19:35.752Z,25.78
2018-08-21T03:20:35.712Z,25.73
2018-08-21T03:21:35.758Z,25.76
2018-08-21T03:22:35.702Z,25.73
2018-08-21T03:23:35.699Z,25.71
2018-08-21T03:24:35.704Z,25.78
2018-08-21T03:25:35.691Z,25.78
2018-08-21T03:26:35.682Z,25.71
2018-08-21T03:27:35.680Z,25.83
2018-08-21T03:28:35.672Z,25.71
2018-08-21T03:29:35.674Z,25.73
2018-08-21T03:30:35.671Z,25.77
2018-08-21T03:31:35.661Z,25.80
2018-08-21T03:32:35.655Z,25.74
2018-08-21T03:33:35.646Z,25.80
2018-08-21T03:34:35.644Z,25.80
2018-08-21T03:35:35.641Z,25.76
2018-08-21T03:36:35.636Z,25.83
2018-08-21T03:37:35.634Z,25.83
2018-08-21T03:38:35.628Z,25.83
2018-08-21T03:39:35.633Z,25.81
2018-08-21T03:40:35.620Z,25.88
2018-08-21T03:41:35.619Z,25.98
2018-08-21T03:42:35.606Z,25.91
2018-08-21T03:43:35.598Z,25.93
2018-08-21T03:44:35.598Z,25.93
2018-08-21T03:45:35.594Z,25.98
2018-08-21T03:46:35.588Z,25.99
2018-08-21T03:47:35.583Z,25.99
2018-08-21T03:48:35.583Z,26.07
2018-08-21T03:49:35.572Z,26.18
2018-08-21T03:50:35.567Z,26.03
2018-08-21T03:51:35.562Z,25.98
2018-08-21T03:52:35.560Z,26.07
2018-08-21T03:53:35.556Z,26.04
2018-08-21T03:54:35.546Z,26.19
2018-08-21T03:55:35.541Z,26.15
2018-08-21T03:56:35.541Z,26.13
2018-08-21T03:57:35.533Z,26.15
2018-08-21T03:58:35.525Z,26.22
2018-08-21T03:59:35.519Z,26.26
2018-08-21T04:00:35.514Z,26.26
2018-08-21T04:01:35.507Z,26.29
2018-08-21T04:02:35.501Z,26.24
2018-08-21T04:03:35.492Z,26.31
2018-08-21T04:04:35.495Z,26.33
2018-08-21T04:05:35.483Z,26.30
2018-08-21T04:06:35.498Z,26.31
2018-08-21T04:07:35.471Z,26.31
2018-08-21T04:08:35.465Z,26.33
2018-08-21T04:09:35.460Z,26.31
2018-08-21T04:10:35.453Z,26.30
2018-08-21T04:11:35.447Z,26.29
2018-08-21T04:12:35.451Z,26.37
2018-08-21T04:13:35.438Z,26.30
2018-08-21T04:14:35.432Z,26.33
2018-08-21T04:15:35.428Z,26.31
2018-08-21T04:16:35.423Z,26.30
2018-08-21T04:17:35.414Z,26.29
2018-08-21T04:18:35.407Z,26.31
2018-08-21T04:19:35.401Z,26.29
2018-08-21T04:20:35.395Z,26.31
2018-08-21T04:21:35.388Z,26.36
2018-08-21T04:22:35.392Z,26.29
2018-08-21T04:23:35.375Z,26.37
2018-08-21T04:24:35.378Z,26.26
2018-08-21T04:25:35.366Z,26.29
2018-08-21T04:26:35.359Z,26.23
2018-08-21T04:27:35.353Z,26.24
2018-08-21T04:28:35.347Z,26.27
2018-08-21T04:29:35.344Z,26.22
2018-08-21T04:30:35.335Z,26.27
2018-08-21T04:31:35.333Z,26.30
2018-08-21T04:32:35.384Z,26.27
2018-08-21T04:33:35.318Z,26.26
2018-08-21T04:34:35.309Z,26.24
2018-08-21T04:35:35.304Z,26.19
2018-08-21T04:36:35.301Z,26.08
2018-08-21T04:37:35.297Z,26.11
2018-08-21T04:38:35.301Z,26.16
2018-08-21T04:39:35.301Z,26.13
2018-08-21T04:40:35.278Z,26.13
2018-08-21T04:41:35.270Z,26.24
2018-08-21T04:42:35.267Z,26.15
2018-08-21T04:43:35.258Z,26.18
2018-08-21T04:44:35.252Z,26.13
2018-08-21T04:45:35.247Z,26.10
2018-08-21T04:46:35.243Z,26.15
2018-08-21T04:47:35.240Z,26.18
2018-08-21T04:48:35.228Z,26.13
2018-08-21T04:49:35.222Z,26.16
2018-08-21T04:50:35.217Z,26.15
2018-08-21T04:51:35.212Z,26.16
2018-08-21T04:52:35.206Z,26.10
2018-08-21T04:53:35.198Z,26.07
2018-08-21T04:54:35.198Z,26.11
2018-08-21T04:55:35.186Z,26.10
2018-08-21T04:56:35.180Z,26.04
2018-08-21T04:57:35.174Z,26.04
2018-08-21T04:58:35.219Z,26.06
2018-08-21T04:59:35.161Z,26.10
2018-08-21T05:00:35.157Z,26.10
2018-08-21T05:01:35.149Z,26.08
2018-08-21T05:02:35.144Z,26.15
2018-08-21T05:03:35.141Z,26.07
2018-08-21T05:04:35.132Z,26.07
2018-08-21T05:05:35.175Z,26.01
2018-08-21T05:06:35.119Z,26.10
2018-08-21T05:07:35.111Z,26.10
2018-08-21T05:08:35.109Z,26.10
2018-08-21T05:09:35.103Z,26.11
2018-08-21T05:10:35.095Z,26.01
2018-08-21T05:11:35.090Z,26.06
2018-08-21T05:12:35.136Z,26.01
2018-08-21T05:13:35.076Z,26.01
2018-08-21T05:14:35.073Z,26.16
2018-08-21T05:15:35.066Z,25.99
2018-08-21T05:16:35.061Z,26.01
2018-08-21T05:17:35.055Z,26.01
2018-08-21T05:18:35.047Z,26.06
2018-08-21T05:19:35.045Z,25.98
2018-08-21T05:20:35.038Z,26.07
2018-08-21T05:21:35.030Z,26.03
2018-08-21T05:22:35.025Z,26.07
2018-08-21T05:23:35.016Z,26.08
2018-08-21T05:24:35.011Z,26.08
2018-08-21T05:25:35.010Z,26.13
2018-08-21T05:26:34.998Z,26.07
2018-08-21T05:27:34.993Z,26.10
2018-08-21T05:28:35.085Z,26.08
2018-08-21T05:29:34.981Z,26.08
2018-08-21T05:30:34.977Z,26.03
2018-08-21T05:31:34.967Z,26.06
2018-08-21T05:32:34.963Z,26.10
2018-08-21T05:33:34.959Z,26.08
2018-08-21T05:34:34.954Z,26.01
2018-08-21T05:35:34.945Z,26.01
2018-08-21T05:36:34.943Z,26.18
2018-08-21T05:37:34.933Z,25.99
2018-08-21T05:38:34.930Z,26.11
2018-08-21T05:39:34.918Z,26.13
2018-08-21T05:40:34.917Z,26.13
2018-08-21T05:41:34.912Z,26.04
2018-08-21T05:42:34.903Z,26.10
2018-08-21T05:43:34.906Z,26.18
2018-08-21T05:44:34.890Z,26.11
2018-08-21T05:45:34.884Z,26.15
2018-08-21T05:46:34.879Z,26.16
2018-08-21T05:47:34.872Z,26.11
2018-08-21T05:48:34.867Z,26.16
2018-08-21T05:49:34.864Z,26.16
2018-08-21T05:50:34.854Z,26.18
2018-08-21T05:51:34.847Z,26.18
2018-08-21T05:52:34.844Z,26.13
2018-08-21T05:53:34.836Z,26.18
2018-08-21T05:54:34.830Z,26.07
2018-08-21T05:55:34.927Z,26.18
2018-08-21T05:56:34.820Z,26.16
2018-08-21T05:57:34.822Z,26.22
2018-08-21T05:58:34.806Z,26.24
2018-08-21T05:59:34.808Z,26.19
2018-08-21T06:00:34.795Z,26.24
2018-08-21T06:01:34.798Z,26.26
2018-08-21T06:02:34.782Z,26.11
2018-08-21T06:03:34.782Z,26.26
2018-08-21T06:04:34.771Z,26.16
2018-08-21T06:05:34.773Z,26.10
2018-08-21T06:06:34.760Z,26.23
2018-08-21T06:07:34.754Z,26.22
2018-08-21T06:08:34.749Z,26.11
2018-08-21T06:09:34.744Z,26.16
2018-08-21T06:10:34.735Z,26.24
2018-08-21T06:11:34.729Z,26.10
2018-08-21T06:12:34.722Z,26.15
2018-08-21T06:13:34.725Z,26.19
2018-08-21T06:14:34.710Z,26.11
2018-08-21T06:15:34.709Z,26.08
2018-08-21T06:16:34.700Z,26.10
2018-08-21T06:17:34.698Z,26.24
2018-08-21T06:18:34.691Z,26.23
2018-08-21T06:19:34.682Z,26.26
2018-08-21T06:20:34.679Z,26.22
2018-08-21T06:21:34.677Z,26.26
2018-08-21T06:22:34.669Z,26.26
2018-08-21T06:23:34.655Z,26.24
2018-08-21T06:24:34.699Z,26.22
2018-08-21T06:25:34.645Z,26.33
2018-08-21T06:26:34.645Z,26.27
2018-08-21T06:27:34.632Z,26.30
2018-08-21T06:28:34.627Z,26.29
2018-08-21T06:29:34.616Z,26.29
2018-08-21T06:30:34.629Z,26.30
2018-08-21T06:31:34.608Z,26.36
2018-08-21T06:32:34.604Z,26.36
2018-08-21T06:33:34.602Z,26.29
2018-08-21T06:34:34.591Z,26.33
2018-08-21T06:35:34.585Z,26.37
2018-08-21T06:36:34.581Z,26.31
2018-08-21T06:37:34.579Z,26.34
2018-08-21T06:38:34.571Z,26.34
2018-08-21T06:39:34.619Z,26.44
2018-08-21T06:40:34.556Z,26.31
2018-08-21T06:41:34.552Z,26.41
2018-08-21T06:42:34.541Z,26.42
2018-08-21T06:43:34.538Z,26.46
2018-08-21T06:44:34.540Z,26.44
2018-08-21T06:45:34.529Z,26.49
2018-08-21T06:46:34.563Z,26.48
2018-08-21T06:47:34.518Z,26.48
2018-08-21T06:48:34.511Z,26.44
2018-08-21T06:49:34.496Z,26.44
2018-08-21T06:50:34.495Z,26.51
2018-08-21T06:51:34.491Z,26.52
2018-08-21T06:52:34.485Z,26.45
2018-08-21T06:53:34.480Z,26.44
2018-08-21T06:54:34.473Z,26.48
2018-08-21T06:55:34.466Z,26.44
2018-08-21T06:56:34.463Z,26.46
2018-08-21T06:57:34.454Z,26.51
2018-08-21T06:58:34.455Z,26.48
2018-08-21T06:59:34.440Z,26.45
2018-08-21T07:00:34.434Z,26.49
2018-08-21T07:01:34.434Z,26.48
2018-08-21T07:02:34.435Z,26.49
2018-08-21T07:03:34.419Z,26.52
2018-08-21T07:04:34.416Z,26.53
2018-08-21T07:05:34.408Z,26.56
2018-08-21T07:06:34.402Z,26.61
2018-08-21T07:07:34.397Z,26.63
2018-08-21T07:08:34.390Z,26.70
2018-08-21T07:09:34.385Z,26.68
2018-08-21T07:10:34.381Z,26.78
2018-08-21T07:11:34.376Z,26.76
2018-08-21T07:12:34.367Z,26.82
2018-08-21T07:13:34.364Z,26.76
2018-08-21T07:14:34.457Z,26.74
2018-08-21T07:15:34.350Z,26.79
2018-08-21T07:16:34.344Z,26.88
2018-08-21T07:17:34.338Z,26.92
2018-08-21T07:18:34.337Z,26.86
2018-08-21T07:19:34.326Z,26.96
2018-08-21T07:20:34.324Z,26.88
2018-08-21T07:21:34.314Z,26.96
2018-08-21T07:22:34.309Z,26.91
2018-08-21T07:23:34.304Z,26.97
2018-08-21T07:24:34.306Z,26.98
2018-08-21T07:25:34.292Z,26.92
2018-08-21T07:26:34.292Z,26.96
2018-08-21T07:27:34.281Z,26.92
2018-08-21T07:28:34.275Z,27.01
2018-08-21T07:29:34.273Z,26.97
2018-08-21T07:30:34.265Z,27.01
2018-08-21T07:31:34.258Z,27.04
2018-08-21T07:32:34.256Z,27.00
2018-08-21T07:33:34.247Z,27.05
2018-08-21T07:34:34.242Z,27.04
2018-08-21T07:35:34.248Z,27.05
2018-08-21T07:36:34.232Z,27.04
2018-08-21T07:37:34.223Z,27.08
2018-08-21T07:38:34.222Z,27.08
2018-08-21T07:39:34.212Z,27.15
2018-08-21T07:40:34.206Z,27.08
2018-08-21T07:41:34.208Z,27.15
2018-08-21T07:42:34.198Z,27.11
2018-08-21T07:43:34.193Z,27.13
2018-08-21T07:44:34.186Z,27.08
2018-08-21T07:45:34.175Z,27.16
2018-08-21T07:46:34.221Z,27.07
2018-08-21T07:47:34.166Z,27.10
2018-08-21T07:48:34.164Z,27.07
2018-08-21T07:49:34.160Z,27.18
2018-08-21T07:50:34.152Z,27.13
2018-08-21T07:51:34.148Z,27.20
2018-08-21T07:52:34.139Z,27.18
2018-08-21T07:53:34.134Z,27.20
2018-08-21T07:54:34.128Z,27.23
2018-08-21T07:55:34.122Z,27.19
2018-08-21T07:56:34.118Z,27.22
2018-08-21T07:57:34.110Z,27.22
2018-08-21T07:58:34.104Z,27.26
2018-08-21T07:59:34.104Z,27.22
2018-08-21T08:00:34.097Z,27.30
2018-08-21T08:01:34.084Z,27.26
2018-08-21T08:02:34.080Z,27.28
2018-08-21T08:03:34.083Z,27.22
2018-08-21T08:04:34.074Z,27.18
2018-08-21T08:05:34.067Z,27.23
2018-08-21T08:06:34.064Z,27.25
2018-08-21T08:07:34.068Z,27.22
2018-08-21T08:08:34.051Z,27.26
2018-08-21T08:09:34.048Z,27.22
2018-08-21T08:10:34.039Z,27.23
2018-08-21T08:11:34.032Z,27.20
2018-08-21T08:12:34.028Z,27.25
2018-08-21T08:13:34.050Z,27.22
2018-08-21T08:14:34.020Z,27.28
2018-08-21T08:15:34.018Z,27.23
2018-08-21T08:16:34.010Z,27.25
2018-08-21T08:17:34.000Z,27.28
2018-08-21T08:18:33.997Z,27.30
2018-08-21T08:19:33.984Z,27.29
2018-08-21T08:20:33.982Z,27.41
2018-08-21T08:21:33.978Z,27.35
2018-08-21T08:22:33.977Z,27.29
2018-08-21T08:23:34.336Z,27.35
2018-08-21T08:24:33.962Z,27.34
2018-08-21T08:25:33.959Z,27.33
2018-08-21T08:26:33.951Z,27.34
2018-08-21T08:27:33.945Z,27.25
2018-08-21T08:28:33.937Z,27.43
2018-08-21T08:29:33.935Z,27.37
2018-08-21T08:30:33.928Z,27.40
2018-08-21T08:31:33.924Z,27.38
2018-08-21T08:32:33.940Z,27.35
2018-08-21T08:33:33.912Z,27.37
2018-08-21T08:34:33.906Z,27.38
2018-08-21T08:35:33.902Z,27.35
2018-08-21T08:36:33.898Z,27.44
2018-08-21T08:37:33.890Z,27.43
2018-08-21T08:38:33.883Z,27.48
2018-08-21T08:39:33.877Z,27.44
2018-08-21T08:40:33.876Z,27.63
2018-08-21T08:41:33.923Z,27.55
2018-08-21T08:42:33.863Z,27.57
2018-08-21T08:43:33.855Z,27.63
2018-08-21T08:44:33.850Z,27.76
2018-08-21T08:45:33.850Z,27.73
2018-08-21T08:46:33.842Z,27.81
2018-08-21T08:47:33.884Z,27.71
2018-08-21T08:48:33.827Z,27.81
2018-08-21T08:49:33.834Z,27.82
2018-08-21T08:50:33.821Z,27.79
2018-08-21T08:51:33.816Z,27.85
2018-08-21T08:52:33.808Z,27.88
2018-08-21T08:53:33.804Z,27.94
2018-08-21T08:54:33.798Z,28.04
2018-08-21T08:55:33.794Z,28.03
2018-08-21T08:56:33.786Z,28.09
2018-08-21T08:57:33.785Z,28.13
2018-08-21T08:58:33.798Z,28.08
2018-08-21T08:59:33.771Z,28.15
2018-08-21T09:00:33.765Z,28.20
2018-08-21T09:01:33.766Z,28.20
2018-08-21T09:02:33.757Z,28.25
2018-08-21T09:03:33.751Z,28.31
2018-08-21T09:04:33.744Z,28.38
2018-08-21T09:05:33.741Z,28.35
2018-08-21T09:06:33.736Z,28.45
2018-08-21T09:07:33.744Z,28.47
2018-08-21T09:08:33.726Z,28.52
2018-08-21T09:09:33.722Z,28.53
2018-08-21T09:10:33.719Z,28.50
2018-08-21T09:11:33.714Z,28.46
2018-08-21T09:12:33.708Z,28.49
2018-08-21T09:13:33.702Z,28.49
2018-08-21T09:14:33.694Z,28.50
2018-08-21T09:15:33.692Z,28.50
2018-08-21T09:16:33.688Z,28.53
2018-08-21T09:17:33.715Z,28.46
2018-08-21T09:18:33.685Z,28.50
2018-08-21T09:19:33.671Z,28.56
2018-08-21T09:20:33.667Z,28.59
2018-08-21T09:21:33.660Z,28.55
2018-08-21T09:22:33.658Z,28.65
2018-08-21T09:23:33.654Z,28.56
2018-08-21T09:24:33.646Z,28.56
2018-08-21T09:25:33.645Z,28.65
2018-08-21T09:26:33.643Z,28.62
2018-08-21T09:27:33.649Z,28.55
2018-08-21T09:28:33.630Z,28.62
2018-08-21T09:29:33.731Z,28.68
2018-08-21T09:30:33.621Z,28.68
2018-08-21T09:31:33.609Z,28.71
2018-08-21T09:32:33.613Z,28.72
2018-08-21T09:33:33.607Z,28.75
2018-08-21T09:34:33.601Z,28.72
2018-08-21T09:35:33.597Z,28.78
2018-08-21T09:36:33.597Z,28.74
2018-08-21T09:37:33.598Z,28.80
2018-08-21T09:38:33.583Z,28.77
2018-08-21T09:39:33.585Z,28.77
2018-08-21T09:40:33.573Z,28.83
2018-08-21T09:41:33.571Z,28.87
2018-08-21T09:42:33.597Z,28.87
2018-08-21T09:43:33.610Z,29.05
2018-08-21T09:44:33.560Z,28.90
2018-08-21T09:45:33.569Z,29.05
2018-08-21T09:46:33.546Z,29.02
2018-08-21T09:47:33.549Z,29.00
2018-08-21T09:48:33.536Z,29.06
2018-08-21T09:49:33.535Z,29.12
2018-08-21T09:50:33.528Z,29.12
2018-08-21T09:51:33.523Z,29.16
2018-08-21T09:52:33.521Z,29.15
2018-08-21T09:53:33.510Z,29.12
2018-08-21T09:54:33.508Z,29.10
2018-08-21T09:55:33.503Z,29.12
2018-08-21T09:56:33.499Z,29.15
2018-08-21T09:57:33.498Z,29.24
2018-08-21T09:58:33.500Z,29.22
2018-08-21T09:59:33.488Z,29.28
2018-08-21T10:00:33.484Z,29.25
2018-08-21T10:01:33.478Z,29.28
2018-08-21T10:02:33.473Z,29.27
2018-08-21T10:03:33.470Z,29.28
2018-08-21T10:04:33.465Z,29.32
2018-08-21T10:05:33.462Z,29.43
2018-08-21T10:06:33.464Z,29.46
2018-08-21T10:07:33.455Z,29.46
2018-08-21T10:08:33.455Z,29.46
2018-08-21T10:09:33.445Z,29.44
2018-08-21T10:10:33.443Z,29.49
2018-08-21T10:11:33.436Z,29.49
2018-08-21T10:12:33.433Z,29.50
2018-08-21T10:13:33.458Z,29.50
2018-08-21T10:14:33.423Z,29.58
2018-08-21T10:15:33.415Z,29.59
2018-08-21T10:16:33.413Z,29.55
2018-08-21T10:17:33.409Z,29.68
2018-08-21T10:18:33.414Z,29.61
2018-08-21T10:19:33.405Z,29.68
2018-08-21T10:20:33.397Z,29.68
2018-08-21T10:21:33.396Z,29.64
2018-08-21T10:22:33.388Z,29.64
2018-08-21T10:23:33.385Z,29.65
2018-08-21T10:24:33.379Z,29.76
2018-08-21T10:25:33.376Z,29.65
2018-08-21T10:26:33.375Z,29.65
2018-08-21T10:27:33.367Z,29.67
2018-08-21T10:28:33.363Z,29.73
2018-08-21T10:29:33.362Z,29.80
2018-08-21T10:30:33.362Z,29.81
2018-08-21T10:31:33.354Z,29.80
2018-08-21T10:32:33.355Z,29.83
2018-08-21T10:33:33.344Z,29.84
2018-08-21T10:34:33.340Z,29.89
2018-08-21T10:35:33.334Z,29.81
2018-08-21T10:36:33.330Z,29.92
2018-08-21T10:37:33.346Z,29.87
2018-08-21T10:38:33.325Z,29.89
2018-08-21T10:39:33.321Z,29.84
2018-08-21T10:40:33.318Z,29.86
2018-08-21T10:41:33.317Z,29.84
2018-08-21T10:42:33.313Z,29.87
2018-08-21T10:43:33.306Z,29.87
2018-08-21T10:44:33.299Z,29.83
2018-08-21T10:45:33.294Z,29.89
2018-08-21T10:46:33.291Z,29.89
2018-08-21T10:47:33.286Z,29.94
2018-08-21T10:48:33.283Z,29.86
2018-08-21T10:49:33.282Z,29.89
2018-08-21T10:50:33.275Z,29.99
2018-08-21T10:51:33.323Z,29.89
2018-08-21T10:52:33.268Z,29.96
2018-08-21T10:53:33.270Z,30.01
2018-08-21T10:54:33.259Z,30.02
2018-08-21T10:55:33.258Z,30.01
2018-08-21T10:56:33.254Z,30.02
2018-08-21T10:57:33.247Z,29.99
2018-08-21T10:58:33.244Z,30.03
2018-08-21T10:59:33.240Z,29.99
2018-08-21T11:00:33.236Z,29.94
2018-08-21T11:01:33.230Z,29.87
2018-08-21T11:02:33.228Z,29.92
2018-08-21T11:03:33.221Z,29.83
2018-08-21T11:04:33.222Z,29.86
2018-08-21T11:05:33.220Z,29.81
2018-08-21T11:06:33.213Z,29.79
2018-08-21T11:07:33.208Z,29.74
2018-08-21T11:08:33.203Z,29.73
2018-08-21T11:09:33.200Z,29.73
2018-08-21T11:10:33.198Z,29.67
2018-08-21T11:11:33.191Z,29.68
2018-08-21T11:12:33.257Z,29.64
2018-08-21T11:13:33.184Z,29.65
2018-08-21T11:14:33.179Z,29.64
2018-08-21T11:15:33.176Z,29.69
2018-08-21T11:16:33.174Z,29.61
2018-08-21T11:17:33.168Z,29.64
2018-08-21T11:18:33.167Z,29.61
2018-08-21T11:19:33.162Z,29.58
2018-08-21T11:20:33.155Z,29.49
2018-08-21T11:21:33.235Z,29.42
2018-08-21T11:22:33.153Z,29.49
2018-08-21T11:23:33.143Z,29.39
2018-08-21T11:24:33.141Z,29.37
2018-08-21T11:25:33.137Z,29.35
2018-08-21T11:26:33.131Z,29.28
2018-08-21T11:27:33.128Z,29.32
2018-08-21T11:28:33.130Z,29.31
2018-08-21T11:29:33.119Z,29.30
2018-08-21T11:30:33.114Z,29.22
2018-08-21T11:31:33.111Z,29.34
2018-08-21T11:32:33.107Z,29.31
2018-08-21T11:33:33.101Z,29.25
2018-08-21T11:34:33.098Z,29.25
2018-08-21T11:35:33.093Z,29.28
2018-08-21T11:36:33.089Z,29.16
2018-08-21T11:37:33.086Z,29.20
2018-08-21T11:38:33.081Z,29.21
2018-08-21T11:39:33.076Z,29.09
2018-08-21T11:40:33.071Z,29.16
2018-08-21T11:41:33.068Z,29.16
2018-08-21T11:42:33.066Z,29.10
2018-08-21T11:43:33.059Z,29.21
2018-08-21T11:44:33.061Z,29.15
2018-08-21T11:45:33.054Z,29.03
2018-08-21T11:46:33.046Z,29.07
2018-08-21T11:47:33.042Z,29.09
2018-08-21T11:48:33.039Z,29.05
2018-08-21T11:49:33.039Z,29.00
2018-08-21T11:50:33.044Z,28.94
2018-08-21T11:51:33.026Z,28.96
2018-08-21T11:52:33.022Z,29.02
2018-08-21T11:53:33.017Z,29.03
2018-08-21T11:54:33.016Z,28.93
2018-08-21T11:55:33.008Z,29.07
2018-08-21T11:56:33.007Z,29.07
2018-08-21T11:57:33.002Z,29.15
2018-08-21T11:58:32.996Z,29.15
2018-08-21T11:59:32.995Z,29.13
2018-08-21T12:00:32.989Z,29.09
2018-08-21T12:01:32.984Z,29.12
2018-08-21T12:02:32.983Z,29.22
2018-08-21T12:03:33.054Z,29.12
2018-08-21T12:04:32.972Z,29.13
2018-08-21T12:05:32.967Z,29.10
2018-08-21T12:06:32.965Z,29.13
2018-08-21T12:07:32.958Z,29.10
2018-08-21T12:08:32.951Z,29.10
2018-08-21T12:09:32.949Z,29.16
2018-08-21T12:10:32.946Z,29.15
2018-08-21T12:11:32.943Z,29.12
2018-08-21T12:12:32.934Z,29.13
2018-08-21T12:13:32.931Z,29.20
2018-08-21T12:14:32.933Z,29.16
2018-08-21T12:15:32.952Z,29.20
2018-08-21T12:16:32.918Z,29.30
2018-08-21T12:17:32.913Z,29.27
2018-08-21T12:18:32.910Z,29.24
2018-08-21T12:19:32.919Z,29.30
2018-08-21T12:20:32.901Z,29.24
2018-08-21T12:21:32.896Z,29.27
2018-08-21T12:22:32.899Z,29.25
2018-08-21T12:23:32.911Z,29.27
2018-08-21T12:24:32.888Z,29.28
2018-08-21T12:25:32.878Z,29.35
2018-08-21T12:26:32.874Z,29.35
2018-08-21T12:27:32.871Z,29.32
2018-08-21T12:28:32.863Z,29.30
2018-08-21T12:29:32.867Z,29.28
2018-08-21T12:30:32.857Z,29.31
2018-08-21T12:31:32.854Z,29.35
2018-08-21T12:32:32.848Z,29.39
2018-08-21T12:33:32.861Z,29.35
2018-08-21T12:34:32.841Z,29.32
2018-08-21T12:35:32.843Z,29.35
2018-08-21T12:36:32.840Z,29.39
2018-08-21T12:37:32.826Z,29.42
2018-08-21T12:38:32.824Z,29.39
2018-08-21T12:39:32.819Z,29.40
2018-08-21T12:40:32.818Z,29.40
2018-08-21T12:41:32.810Z,29.42
2018-08-21T12:42:32.806Z,29.43
2018-08-21T12:43:32.805Z,29.35
2018-08-21T12:44:32.797Z,29.35
2018-08-21T12:45:32.795Z,29.42
2018-08-21T12:46:32.787Z,29.35
2018-08-21T12:47:32.784Z,29.40
2018-08-21T12:48:32.780Z,29.46
2018-08-21T12:49:32.771Z,29.40
2018-08-21T12:50:32.902Z,29.44
2018-08-21T12:51:32.764Z,29.35
2018-08-21T12:52:32.759Z,29.35